Voyageurs National Park, MN

08:34 PM CDT die 22o October, anno 2014 (GMT -0500)
Falls International | Change Station
CLOSE
Current Station
Airport
Location: International Falls,
Elevation: 1181 ft
Nearby Weather Stations

Elev 1181 ft 48.56 °N, 93.40 °W | Updated 39 minutes ago

Aequaliter Nubila
Aequaliter Nubila
56 °F
Feels Like 56 °F
N
8
Ventus Variabilis Ventus from Auster
Gusts 17 mph

Hodie
High -- | Low -- °F
--% Chance of Precip.
Yesterday
High -- | Low -- °F
Precip. -- in
7:44 AM 6:11 PM
Waning Crescent, 1% visible
Pressio 29.96 in
Visibilitas 10.0 milia passuum
Clouds Aequaliter Nubila 4100 ft
Frigus in quo Ros apparet 41 °F
Umor 57%
Rainfall 0.00 in
Snow Depth Not available.
UV 0 out of 12
Pollen 1.30 out of 12
Air Quality Not available.
Flu Activity Sporadic
METAR KINL 230055Z AUTO 18007G15KT 10SM OVC041 13/05 A2994 RMK AO2 SLP146 T01330050

More Conditions Fewer Conditions

Pressio 29.96 in
Visibilitas 10.0 milia passuum
Clouds Aequaliter Nubila 4100 ft
Frigus in quo Ros apparet 41 °F
Umor 57%
Rainfall 0.00 in
Snow Depth Not available.
UV 0 out of 12
Pollen 1.30 out of 12
Air Quality Not available.
Flu Activity Sporadic
METAR KINL 230055Z AUTO 18007G15KT 10SM OVC041 13/05 A2994 RMK AO2 SLP146 T01330050

More Conditions Fewer Conditions

10-Day Weather Forecast

Almanac

Astronomy

Oct. 22, 2014 Rise Set
Actual Time 7:44 AM CDT 6:11 PM CDT
Civil Twilight 7:12 AM CDT 6:43 PM CDT
Nautical Twilight 6:35 AM CDT 7:19 PM CDT
Astronomical Twilight 5:59 AM CDT 7:55 PM CDT
Moon 6:20 AM CDT (10/22) 5:42 PM CDT (10/22)
Length Of Visible Light 11h 30m
Length of Day
10h 26m
Tomorrow will be 3m 21s shorter.
Waning Crescent, 1% of the Moon is Illuminated
Hodie
Waning Crescent
Oct 23
New
Oct 30
First Quarter
Nov 6
Full
Nov 14
Last Quarter

Today's Extremes

State Highs State Lows

Community

WunderPhotos

Upload Photos

1,764,106 photos uploaded!

Nearby

Snow Depth

Station Depth Elevation
No new snow has been reported.

Earthquake Activity

City Distance Mag. Time & Date
No recent earthquake activity has been reported nearby.
Minimum magnitude displayed is 2.5.

Coastal Water Temperatures

Locus Calor
No Stations Reporting

Nearby Weather Stations